Time;durP1;ratioP1;P1;durP2;ratioP2;P2;SDS_P1;SDS_P2;PMS_P1;PMS_P2;Temp;Humidity;BMP_temperature;BMP_pressure;BME280_temperature;BME280_humidity;BME280_pressure;Samples;Min_cycle;Max_cycle;Signal;HPM_P1;HPM_P2
2021/12/12 00:01:02;;;;;;;11.77;6.00;;;3.70;99.90;;;;;;10393105;28;20662;-70
2021/12/12 00:06:12;;;;;;;10.73;5.57;;;3.80;99.90;;;;;;10397831;28;20597;-71
2021/12/12 00:11:18;;;;;;;9.20;5.23;;;3.90;99.90;;;;;;10396263;28;20217;-70
2021/12/12 00:16:19;;;;;;;10.00;5.57;;;3.90;99.90;;;;;;10396887;28;20228;-70
2021/12/12 00:21:21;;;;;;;12.93;6.07;;;3.90;99.90;;;;;;10395666;28;20229;-70
2021/12/12 00:26:23;;;;;;;13.53;7.13;;;3.90;99.90;;;;;;10405907;28;20264;-71
2021/12/12 00:31:26;;;;;;;11.10;5.97;;;4.00;99.90;;;;;;10396641;28;20696;-70
2021/12/12 00:36:28;;;;;;;10.73;6.23;;;4.10;99.90;;;;;;10394603;28;20217;-70
2021/12/12 00:41:40;;;;;;;10.87;5.60;;;4.20;99.90;;;;;;10396836;28;20221;-71
2021/12/12 00:46:42;;;;;;;9.90;6.80;;;4.30;99.90;;;;;;10398443;28;20241;-69
2021/12/12 00:51:45;;;;;;;11.10;6.83;;;4.40;99.90;;;;;;10398748;28;20728;-69
2021/12/12 00:56:47;;;;;;;12.07;6.17;;;4.50;99.90;;;;;;10407067;28;20739;-69
2021/12/12 01:01:51;;;;;;;10.03;5.23;;;4.60;99.90;;;;;;10398301;28;20456;-70
2021/12/12 01:06:54;;;;;;;11.00;5.53;;;4.60;99.90;;;;;;10397685;28;20212;-69
2021/12/12 01:12:00;;;;;;;11.13;5.40;;;4.60;99.90;;;;;;10390896;28;20276;-69
2021/12/12 01:17:11;;;;;;;8.87;5.57;;;4.60;99.90;;;;;;10395198;28;20231;-70
2021/12/12 01:22:19;;;;;;;11.70;5.23;;;4.60;99.90;;;;;;10388287;28;20216;-69
2021/12/12 01:27:20;;;;;;;11.40;5.83;;;4.60;99.90;;;;;;10392488;28;20613;-69
2021/12/12 01:32:29;;;;;;;16.77;6.90;;;4.60;99.90;;;;;;10393921;28;20216;-69
2021/12/12 01:37:39;;;;;;;10.37;5.77;;;4.50;99.90;;;;;;10395671;28;20639;-69
2021/12/12 01:42:44;;;;;;;12.23;6.50;;;4.40;99.90;;;;;;10397390;28;20216;-69
2021/12/12 01:47:59;;;;;;;11.03;6.67;;;4.30;99.90;;;;;;10386559;28;20220;-70
2021/12/12 01:53:03;;;;;;;12.67;6.47;;;4.20;99.90;;;;;;10387236;28;20260;-69
2021/12/12 01:58:09;;;;;;;16.33;8.30;;;4.00;99.90;;;;;;10393607;28;20233;-71
2021/12/12 02:03:13;;;;;;;13.97;7.90;;;3.90;99.90;;;;;;10395949;28;20217;-69
2021/12/12 02:08:17;;;;;;;15.10;8.53;;;3.80;99.90;;;;;;10395526;28;20233;-70
2021/12/12 02:13:22;;;;;;;13.43;8.00;;;3.70;99.90;;;;;;10390968;28;20952;-69
2021/12/12 02:18:31;;;;;;;14.90;8.13;;;3.60;99.90;;;;;;10395086;28;20228;-69
2021/12/12 02:23:52;;;;;;;12.97;7.73;;;3.50;99.90;;;;;;10400973;28;20303;-69
2021/12/12 02:39:33;;;;;;;17.57;7.33;;;3.30;99.90;;;;;;10400693;28;20896;-69
2021/12/12 02:44:37;;;;;;;16.20;7.23;;;3.30;99.90;;;;;;10405492;28;20213;-69
2021/12/12 02:54:53;;;;;;;11.13;6.17;;;3.30;99.90;;;;;;10407708;28;20604;-69
2021/12/12 02:59:54;;;;;;;12.57;6.10;;;3.30;99.90;;;;;;10401085;28;20222;-69
2021/12/12 03:04:58;;;;;;;8.67;5.17;;;3.20;99.90;;;;;;10413429;28;20760;-69
2021/12/12 03:09:59;;;;;;;10.17;5.73;;;3.30;99.90;;;;;;10411652;28;20296;-70
2021/12/12 03:15:13;;;;;;;12.30;5.20;;;3.30;99.90;;;;;;10412217;28;20328;-70
2021/12/12 03:20:24;;;;;;;12.43;5.30;;;3.30;99.90;;;;;;10403379;28;20225;-69
2021/12/12 03:25:25;;;;;;;15.83;5.20;;;3.30;99.90;;;;;;10403377;28;20294;-69
2021/12/12 03:30:28;;;;;;;10.37;4.33;;;3.30;99.90;;;;;;10397404;28;20636;-68
2021/12/12 03:35:29;;;;;;;9.97;4.80;;;3.30;99.90;;;;;;10389972;28;20653;-69
2021/12/12 03:40:36;;;;;;;12.77;5.33;;;3.20;99.90;;;;;;10395948;28;20336;-68
2021/12/12 03:45:37;;;;;;;11.00;4.63;;;3.10;99.90;;;;;;10390814;28;20286;-68
2021/12/12 03:50:40;;;;;;;13.43;3.97;;;3.10;99.90;;;;;;10405007;28;20216;-68
2021/12/12 03:55:43;;;;;;;7.90;4.10;;;3.10;99.90;;;;;;10389178;28;20221;-69
2021/12/12 04:00:46;;;;;;;10.23;4.53;;;3.10;99.90;;;;;;10398444;28;20224;-69
2021/12/12 04:05:53;;;;;;;8.70;4.27;;;3.10;99.90;;;;;;10388909;28;20736;-69
2021/12/12 04:10:54;;;;;;;8.33;4.00;;;3.10;99.90;;;;;;10395038;28;20219;-69
2021/12/12 04:15:56;;;;;;;13.00;4.70;;;3.10;99.90;;;;;;10389973;28;20307;-69
2021/12/12 04:20:57;;;;;;;11.60;4.13;;;3.10;99.90;;;;;;10394057;28;20227;-68
2021/12/12 04:26:26;;;;;;;13.27;4.23;;;3.20;99.90;;;;;;10390385;28;20224;-68
2021/12/12 04:31:28;;;;;;;7.63;4.23;;;3.30;99.90;;;;;;10397532;28;20307;-68
2021/12/12 04:36:35;;;;;;;12.87;4.43;;;3.40;99.90;;;;;;10412103;28;20324;-69
2021/12/12 04:41:36;;;;;;;8.60;4.30;;;3.40;99.90;;;;;;10388241;28;20804;-68
2021/12/12 04:52:21;;;;;;;8.40;3.73;;;3.40;99.90;;;;;;10392127;28;20795;-70
2021/12/12 04:58:05;;;;;;;12.17;3.83;;;3.50;99.90;;;;;;10398913;28;20312;-69
2021/12/12 05:03:25;;;;;;;11.97;3.80;;;3.60;99.90;;;;;;10397634;28;20247;-69
2021/12/12 05:08:48;;;;;;;7.10;3.40;;;3.60;99.90;;;;;;10390295;28;20225;-69
2021/12/12 05:13:55;;;;;;;10.57;3.83;;;3.80;99.90;;;;;;10387737;28;20224;-69
2021/12/12 05:19:05;;;;;;;9.50;3.93;;;3.80;99.90;;;;;;10393763;28;20693;-68
2021/12/12 05:24:10;;;;;;;8.63;3.63;;;3.90;99.90;;;;;;10390502;28;20251;-69
2021/12/12 05:29:18;;;;;;;11.10;3.70;;;3.90;99.90;;;;;;10390050;28;20919;-68
2021/12/12 05:34:26;;;;;;;8.57;3.50;;;4.00;99.90;;;;;;10391270;28;20570;-69
2021/12/12 05:39:28;;;;;;;8.50;3.47;;;4.00;99.90;;;;;;10387944;28;20221;-69
2021/12/12 05:44:30;;;;;;;5.80;2.90;;;4.00;99.90;;;;;;10391864;28;20247;-69
2021/12/12 05:49:32;;;;;;;10.77;3.60;;;4.10;99.90;;;;;;10386981;28;20312;-71
2021/12/12 05:54:32;;;;;;;9.97;3.57;;;4.10;99.90;;;;;;10398702;28;20236;-71
2021/12/12 05:59:33;;;;;;;7.07;3.13;;;4.10;99.90;;;;;;10389798;28;20225;-69
2021/12/12 06:04:36;;;;;;;8.73;3.70;;;4.10;99.90;;;;;;10392318;28;20220;-69
2021/12/12 06:09:37;;;;;;;11.43;4.57;;;4.10;99.90;;;;;;10388033;28;20581;-69
2021/12/12 06:14:39;;;;;;;10.53;4.30;;;4.10;99.90;;;;;;10389961;28;20592;-69
2021/12/12 06:19:41;;;;;;;6.80;4.10;;;4.00;99.90;;;;;;10384402;28;20276;-71
2021/12/12 06:24:43;;;;;;;5.07;3.77;;;4.10;99.90;;;;;;10394749;28;20217;-68
2021/12/12 06:29:48;;;;;;;9.13;4.17;;;4.00;99.90;;;;;;10402713;28;20276;-68
2021/12/12 06:34:51;;;;;;;10.40;4.53;;;4.00;99.90;;;;;;10386743;28;20229;-70
2021/12/12 06:39:53;;;;;;;9.53;4.40;;;3.90;99.90;;;;;;10397408;28;20224;-69
2021/12/12 06:44:54;;;;;;;9.93;4.43;;;4.00;99.90;;;;;;10393256;28;20284;-68
2021/12/12 06:49:54;;;;;;;11.83;4.60;;;4.00;99.90;;;;;;10388422;28;20317;-68
2021/12/12 06:54:56;;;;;;;7.47;4.70;;;4.00;99.90;;;;;;10408315;28;20315;-69
2021/12/12 06:59:58;;;;;;;8.67;5.13;;;4.10;99.90;;;;;;10413488;28;20228;-68
2021/12/12 07:05:03;;;;;;;9.37;5.43;;;4.10;99.90;;;;;;10393135;28;20695;-69
2021/12/12 07:10:07;;;;;;;13.53;6.00;;;4.10;99.90;;;;;;10394336;28;20251;-70
2021/12/12 07:15:12;;;;;;;11.53;7.53;;;4.10;99.90;;;;;;10392196;28;20376;-69
2021/12/12 07:20:14;;;;;;;10.87;6.57;;;4.20;99.90;;;;;;10396029;28;20918;-69
2021/12/12 07:25:16;;;;;;;10.37;5.27;;;4.30;99.90;;;;;;10398084;28;20276;-68
2021/12/12 07:30:20;;;;;;;12.13;5.23;;;4.30;99.90;;;;;;10396849;28;20247;-68
2021/12/12 07:35:23;;;;;;;10.60;5.47;;;4.30;99.90;;;;;;10401379;28;20195;-69
2021/12/12 07:40:27;;;;;;;10.63;5.83;;;4.40;99.90;;;;;;10396631;28;20228;-70
2021/12/12 07:45:28;;;;;;;10.17;5.73;;;4.50;99.90;;;;;;10395105;28;20696;-69
2021/12/12 07:50:30;;;;;;;10.47;5.77;;;4.50;99.90;;;;;;10395890;28;20783;-72
2021/12/12 07:55:32;;;;;;;8.83;5.80;;;4.60;99.90;;;;;;10389211;28;20310;-69
2021/12/12 08:00:33;;;;;;;12.20;6.27;;;4.60;99.90;;;;;;10393534;28;20310;-68
2021/12/12 08:05:35;;;;;;;8.40;6.17;;;4.60;99.90;;;;;;10388133;28;20312;-68
2021/12/12 08:10:39;;;;;;;11.40;6.37;;;4.60;99.90;;;;;;10387697;28;20226;-69
2021/12/12 08:15:40;;;;;;;8.93;5.67;;;4.60;99.90;;;;;;10390758;28;20215;-69
2021/12/12 08:20:43;;;;;;;9.90;5.60;;;4.60;99.90;;;;;;10392799;28;20233;-69
2021/12/12 08:25:47;;;;;;;15.43;7.23;;;4.60;99.90;;;;;;10399752;28;20276;-68
2021/12/12 08:30:49;;;;;;;11.13;5.70;;;4.60;99.90;;;;;;10405806;28;20225;-70
2021/12/12 08:35:50;;;;;;;10.53;5.63;;;4.60;99.90;;;;;;10399006;28;20221;-71
2021/12/12 08:40:54;;;;;;;10.80;6.00;;;4.80;99.90;;;;;;10392788;28;20236;-71
2021/12/12 08:46:05;;;;;;;11.17;6.50;;;5.00;99.90;;;;;;10403290;28;20281;-70
2021/12/12 08:51:17;;;;;;;11.07;6.43;;;5.40;99.90;;;;;;10386484;28;20240;-70
2021/12/12 08:56:40;;;;;;;12.57;6.80;;;5.80;99.90;;;;;;10397112;28;20259;-69
2021/12/12 09:01:42;;;;;;;11.67;6.60;;;5.90;99.90;;;;;;10398253;28;20310;-71
2021/12/12 09:07:01;;;;;;;10.30;6.87;;;5.90;99.90;;;;;;10394419;28;20254;-70
2021/12/12 09:12:09;;;;;;;9.33;6.07;;;5.70;99.90;;;;;;10388612;28;20224;-70
2021/12/12 09:17:31;;;;;;;11.27;7.20;;;5.50;99.90;;;;;;10391537;28;20249;-70
2021/12/12 09:22:35;;;;;;;9.10;6.47;;;5.40;99.90;;;;;;10391693;28;20227;-70
2021/12/12 09:27:43;;;;;;;11.93;6.90;;;5.40;99.90;;;;;;10386991;28;20647;-70
2021/12/12 09:32:51;;;;;;;11.40;6.90;;;5.40;99.90;;;;;;10392551;28;20738;-68
2021/12/12 09:37:57;;;;;;;14.37;6.37;;;5.50;99.90;;;;;;10400801;28;20637;-69
2021/12/12 09:43:25;;;;;;;9.40;6.60;;;5.40;99.90;;;;;;10383259;28;20309;-69
2021/12/12 09:54:35;;;;;;;9.77;6.93;;;5.50;99.90;;;;;;10386315;28;20225;-69
2021/12/12 09:59:58;;;;;;;10.23;6.17;;;5.70;99.90;;;;;;10371018;28;20224;-70
2021/12/12 10:05:12;;;;;;;9.07;6.37;;;6.10;99.90;;;;;;10398614;28;20220;-70
2021/12/12 10:10:22;;;;;;;10.53;6.73;;;6.50;99.90;;;;;;10391240;28;20221;-70
2021/12/12 10:15:25;;;;;;;8.53;6.63;;;6.70;99.90;;;;;;10384362;28;20193;-70
2021/12/12 10:20:54;;;;;;;11.40;6.50;;;6.70;99.90;;;;;;10390189;28;20228;-70
2021/12/12 10:26:03;;;;;;;9.80;6.30;;;6.50;99.90;;;;;;10400387;28;20236;-70
2021/12/12 10:31:16;;;;;;;10.03;6.90;;;6.50;99.90;;;;;;10389070;28;20236;-70
2021/12/12 10:36:23;;;;;;;8.10;5.90;;;6.40;99.90;;;;;;10392946;28;20220;-70
2021/12/12 10:41:51;;;;;;;9.90;5.73;;;6.50;99.90;;;;;;10387597;28;20235;-70
2021/12/12 10:47:15;;;;;;;8.73;6.33;;;6.60;99.90;;;;;;10393393;28;20221;-70
2021/12/12 10:52:25;;;;;;;10.80;5.60;;;6.60;99.90;;;;;;10399728;28;20228;-71
2021/12/12 10:57:33;;;;;;;10.77;5.93;;;6.60;99.90;;;;;;10401051;28;20755;-69
2021/12/12 11:02:54;;;;;;;9.27;6.20;;;6.40;99.90;;;;;;10393651;28;20267;-71
2021/12/12 11:08:20;;;;;;;8.47;5.50;;;6.40;99.90;;;;;;10400902;28;20287;-71
2021/12/12 11:13:40;;;;;;;11.13;5.47;;;6.60;99.90;;;;;;10394516;28;20221;-71
2021/12/12 11:19:11;;;;;;;9.00;5.50;;;6.90;99.90;;;;;;10397777;28;20259;-71
2021/12/12 11:24:18;;;;;;;9.53;5.50;;;7.20;99.90;;;;;;10370524;28;20676;-71
2021/12/12 11:29:27;;;;;;;8.83;5.60;;;7.00;99.90;;;;;;10393405;28;20735;-70
2021/12/12 11:34:28;;;;;;;9.40;5.43;;;6.90;99.90;;;;;;10395805;28;20220;-70
2021/12/12 11:39:43;;;;;;;7.47;5.37;;;6.80;99.90;;;;;;10396518;28;20230;-70
2021/12/12 11:45:11;;;;;;;9.37;5.10;;;6.80;99.90;;;;;;10384504;28;20352;-71
2021/12/12 11:50:47;;;;;;;9.60;6.00;;;6.70;99.90;;;;;;10392068;28;20220;-69
2021/12/12 11:55:56;;;;;;;10.03;5.23;;;6.70;99.90;;;;;;10399232;28;20262;-70
2021/12/12 12:01:01;;;;;;;9.13;5.20;;;6.70;99.90;;;;;;10393758;28;20224;-71
2021/12/12 12:06:20;;;;;;;7.23;4.90;;;6.60;99.90;;;;;;10390433;28;20713;-71
2021/12/12 12:11:58;;;;;;;10.20;5.20;;;6.60;99.90;;;;;;10391976;28;20236;-70
2021/12/12 12:17:22;;;;;;;6.77;5.03;;;6.60;99.90;;;;;;10389967;28;20218;-70
2021/12/12 12:22:52;;;;;;;9.67;5.10;;;6.60;99.90;;;;;;10398544;28;20204;-71
2021/12/12 12:28:03;;;;;;;8.20;4.23;;;6.70;99.90;;;;;;10389562;28;20243;-70
2021/12/12 12:33:48;;;;;;;9.30;5.17;;;6.70;99.90;;;;;;10398198;28;20670;-70
2021/12/12 12:38:56;;;;;;;6.30;4.80;;;6.60;99.90;;;;;;10407105;28;20232;-71
2021/12/12 12:44:35;;;;;;;8.47;4.70;;;6.60;99.90;;;;;;10401398;28;20613;-71
2021/12/12 12:50:13;;;;;;;10.77;4.67;;;6.60;99.90;;;;;;10399293;28;20662;-70
2021/12/12 12:55:56;;;;;;;8.23;4.20;;;6.60;99.90;;;;;;10405231;28;20243;-70
2021/12/12 13:01:08;;;;;;;6.27;4.07;;;6.50;99.90;;;;;;10372721;28;20220;-69
2021/12/12 13:06:14;;;;;;;8.07;4.40;;;6.50;99.90;;;;;;10399677;28;20223;-70
2021/12/12 13:11:25;;;;;;;8.30;3.93;;;6.40;99.90;;;;;;10396688;28;20229;-70
2021/12/12 13:16:48;;;;;;;6.87;3.90;;;6.40;99.90;;;;;;10389161;28;20212;-70
2021/12/12 13:22:05;;;;;;;8.03;4.30;;;6.30;99.90;;;;;;10402261;28;20225;-70
2021/12/12 13:27:29;;;;;;;7.50;3.87;;;6.20;99.90;;;;;;10399971;28;20221;-70
2021/12/12 13:32:56;;;;;;;6.53;3.60;;;6.20;99.90;;;;;;10407218;28;20239;-71
2021/12/12 13:38:20;;;;;;;11.13;4.13;;;6.10;99.90;;;;;;10362690;28;20217;-70
2021/12/12 13:43:49;;;;;;;12.97;4.57;;;6.10;99.90;;;;;;10397044;28;20247;-69
2021/12/12 13:49:11;;;;;;;6.20;3.90;;;6.10;99.90;;;;;;10397147;28;20259;-70
2021/12/12 13:54:35;;;;;;;8.13;4.03;;;6.20;99.90;;;;;;10401864;28;20225;-70
2021/12/12 14:00:05;;;;;;;8.37;4.03;;;6.30;99.90;;;;;;10397274;28;20354;-71
2021/12/12 14:05:18;;;;;;;8.77;3.80;;;6.30;99.90;;;;;;10396779;28;20799;-69
2021/12/12 14:10:29;;;;;;;6.80;3.80;;;6.20;99.90;;;;;;10396128;28;20275;-69
2021/12/12 14:15:34;;;;;;;8.43;4.10;;;6.10;99.90;;;;;;10400575;28;20219;-71
2021/12/12 14:20:43;;;;;;;8.20;4.43;;;6.10;99.90;;;;;;10396502;28;20240;-70
2021/12/12 14:25:48;;;;;;;10.10;3.93;;;6.10;99.90;;;;;;10397198;28;20216;-70
2021/12/12 14:30:53;;;;;;;7.23;4.20;;;6.10;99.90;;;;;;10388062;28;20248;-70
2021/12/12 14:36:02;;;;;;;8.57;4.37;;;6.10;99.90;;;;;;10402064;28;20238;-70
2021/12/12 14:41:05;;;;;;;11.83;4.10;;;6.10;99.90;;;;;;10390453;28;20240;-70
2021/12/12 14:46:29;;;;;;;12.17;4.20;;;6.10;99.90;;;;;;10390649;28;20255;-69
2021/12/12 14:51:34;;;;;;;8.43;3.87;;;6.10;99.90;;;;;;10396792;28;20227;-70
2021/12/12 14:56:57;;;;;;;10.80;3.93;;;6.10;99.90;;;;;;10397275;28;20225;-70
2021/12/12 15:02:03;;;;;;;7.80;4.20;;;6.10;99.90;;;;;;10403007;28;20220;-67
2021/12/12 15:07:09;;;;;;;6.63;3.83;;;6.10;99.90;;;;;;10404889;28;20266;-69
2021/12/12 15:12:17;;;;;;;7.17;4.07;;;6.10;99.90;;;;;;10391316;28;20621;-69
2021/12/12 15:17:20;;;;;;;5.43;3.93;;;6.10;99.90;;;;;;10395274;28;20221;-69
2021/12/12 15:22:24;;;;;;;7.97;4.10;;;6.10;99.90;;;;;;10393380;28;20218;-70
2021/12/12 15:27:39;;;;;;;8.23;3.90;;;6.10;99.90;;;;;;10404878;28;20221;-70
2021/12/12 15:32:55;;;;;;;7.63;4.00;;;6.10;99.90;;;;;;10396251;28;20221;-70
2021/12/12 15:37:57;;;;;;;8.43;4.83;;;6.10;99.90;;;;;;10408099;28;20236;-70
2021/12/12 15:43:01;;;;;;;10.33;4.07;;;6.10;99.90;;;;;;10406313;28;20247;-69
2021/12/12 15:48:03;;;;;;;8.03;4.27;;;6.10;99.90;;;;;;10404034;28;20225;-69
2021/12/12 15:53:09;;;;;;;7.30;4.00;;;6.10;99.90;;;;;;10405978;28;20671;-70
2021/12/12 15:58:21;;;;;;;8.57;4.00;;;6.10;99.90;;;;;;10386262;28;20647;-68
2021/12/12 16:03:24;;;;;;;6.97;3.90;;;6.10;99.90;;;;;;10404276;28;20279;-70
2021/12/12 16:08:46;;;;;;;9.80;4.30;;;6.10;99.90;;;;;;10397334;28;20246;-69
2021/12/12 16:13:50;;;;;;;8.17;4.40;;;6.10;99.90;;;;;;10396908;28;20220;-69
2021/12/12 16:19:02;;;;;;;7.67;4.43;;;6.10;99.90;;;;;;10412595;28;20225;-70
2021/12/12 16:24:07;;;;;;;12.17;4.57;;;6.10;99.90;;;;;;10410053;28;20227;-69
2021/12/12 16:29:18;;;;;;;8.30;4.47;;;6.10;99.90;;;;;;10409764;28;20217;-70
2021/12/12 16:34:23;;;;;;;8.20;4.37;;;6.10;99.90;;;;;;10402473;28;20225;-70
2021/12/12 16:39:29;;;;;;;13.20;6.13;;;6.20;99.90;;;;;;10402546;28;20315;-69
2021/12/12 16:44:37;;;;;;;9.07;4.87;;;6.20;99.90;;;;;;10403688;28;20307;-68
2021/12/12 16:49:45;;;;;;;6.70;4.07;;;6.20;99.90;;;;;;10403265;28;20229;-68
2021/12/12 16:54:49;;;;;;;9.67;4.60;;;6.20;99.90;;;;;;10415665;28;20228;-70
2021/12/12 16:59:56;;;;;;;8.40;4.77;;;6.10;99.90;;;;;;10398429;28;20244;-68
2021/12/12 17:04:58;;;;;;;9.17;4.53;;;6.10;99.90;;;;;;10397509;28;20570;-69
2021/12/12 17:10:00;;;;;;;11.17;4.80;;;6.10;99.90;;;;;;10392973;28;20646;-70
2021/12/12 17:15:07;;;;;;;8.70;4.97;;;6.00;99.90;;;;;;10386150;28;20930;-69
2021/12/12 17:20:22;;;;;;;7.93;4.73;;;6.00;99.90;;;;;;10406752;28;20237;-70
2021/12/12 17:25:25;;;;;;;7.07;4.73;;;6.00;99.90;;;;;;10395255;28;20235;-70
2021/12/12 17:30:30;;;;;;;8.70;5.10;;;6.00;99.90;;;;;;10400717;28;20221;-70
2021/12/12 17:35:43;;;;;;;10.83;5.60;;;5.90;99.90;;;;;;10392428;28;20225;-70
2021/12/12 17:40:54;;;;;;;9.00;4.97;;;5.90;99.90;;;;;;10397895;28;20699;-69
2021/12/12 17:46:19;;;;;;;8.77;4.70;;;5.90;99.90;;;;;;10385694;28;20705;-69
2021/12/12 17:51:24;;;;;;;9.27;5.27;;;5.90;99.90;;;;;;10384056;28;20714;-70
2021/12/12 17:56:37;;;;;;;7.73;4.50;;;5.90;99.90;;;;;;10383204;28;20319;-70
2021/12/12 18:01:44;;;;;;;8.17;5.10;;;5.80;99.90;;;;;;10392910;28;20241;-70
2021/12/12 18:06:56;;;;;;;10.37;4.70;;;5.80;99.90;;;;;;10403568;28;20623;-70
2021/12/12 18:12:07;;;;;;;8.03;4.80;;;5.90;99.90;;;;;;10400221;28;20224;-70
2021/12/12 18:17:14;;;;;;;10.33;5.17;;;5.80;99.90;;;;;;10399936;28;20307;-71
2021/12/12 18:22:32;;;;;;;10.70;4.97;;;5.90;99.90;;;;;;10404595;28;20235;-70
2021/12/12 18:27:39;;;;;;;7.83;4.67;;;5.90;99.90;;;;;;10377437;28;20325;-70
2021/12/12 18:32:45;;;;;;;8.33;5.60;;;5.90;99.90;;;;;;10383544;28;20290;-70
2021/12/12 18:37:53;;;;;;;8.63;5.37;;;5.90;99.90;;;;;;10402130;28;20578;-71
2021/12/12 18:42:56;;;;;;;7.67;5.43;;;6.00;99.90;;;;;;10383512;28;20221;-70
2021/12/12 18:47:59;;;;;;;8.87;5.57;;;5.90;99.90;;;;;;10395999;28;20303;-70
2021/12/12 18:53:18;;;;;;;11.13;7.13;;;6.00;99.90;;;;;;10404462;28;20267;-70
2021/12/12 18:58:34;;;;;;;12.27;6.47;;;6.00;99.90;;;;;;10402810;28;20697;-69
2021/12/12 19:03:40;;;;;;;9.63;6.10;;;6.00;99.90;;;;;;10397368;28;20212;-69
2021/12/12 19:08:44;;;;;;;12.70;7.27;;;6.00;99.90;;;;;;10396669;28;20220;-69
2021/12/12 19:13:48;;;;;;;11.90;8.17;;;6.00;99.90;;;;;;10398934;28;20707;-70
2021/12/12 19:18:53;;;;;;;12.20;6.67;;;5.90;99.90;;;;;;10394371;28;20347;-69
2021/12/12 19:24:09;;;;;;;12.97;7.27;;;5.90;99.90;;;;;;10392878;28;20205;-69
2021/12/12 19:29:14;;;;;;;13.07;7.43;;;5.90;99.90;;;;;;10391755;28;20594;-70
2021/12/12 19:34:22;;;;;;;13.53;7.67;;;5.90;99.90;;;;;;10405308;28;20401;-71
2021/12/12 19:39:34;;;;;;;14.70;8.30;;;5.90;99.90;;;;;;10398846;28;20284;-70
2021/12/12 19:44:38;;;;;;;12.20;8.60;;;5.80;99.90;;;;;;10394807;28;20228;-70
2021/12/12 19:49:39;;;;;;;11.80;7.73;;;5.90;99.90;;;;;;10402355;28;20263;-69
2021/12/12 19:54:39;;;;;;;13.07;7.93;;;5.90;99.90;;;;;;10405702;28;20224;-71
2021/12/12 19:59:44;;;;;;;16.23;7.63;;;6.00;99.90;;;;;;10394052;28;20691;-70
2021/12/12 20:04:48;;;;;;;12.77;7.93;;;6.00;99.90;;;;;;10401120;28;20286;-71
2021/12/12 20:09:53;;;;;;;18.07;8.83;;;6.00;99.90;;;;;;10400067;28;20619;-70
2021/12/12 20:15:19;;;;;;;13.97;8.00;;;6.10;99.90;;;;;;10391680;28;20224;-69
2021/12/12 20:20:31;;;;;;;16.17;8.70;;;6.10;99.90;;;;;;10386886;28;20650;-70
2021/12/12 20:25:41;;;;;;;13.50;8.23;;;6.10;99.90;;;;;;10393181;28;20216;-69
2021/12/12 20:30:57;;;;;;;13.77;8.80;;;6.10;99.90;;;;;;10399324;28;20221;-70
2021/12/12 20:36:06;;;;;;;12.87;8.47;;;6.20;99.90;;;;;;10390061;28;20285;-69
2021/12/12 20:41:16;;;;;;;10.47;8.17;;;6.20;99.90;;;;;;10384672;28;20724;-70
2021/12/12 20:46:23;;;;;;;12.27;9.80;;;6.30;99.90;;;;;;10393451;28;20225;-70
2021/12/12 20:51:30;;;;;;;10.90;8.77;;;6.20;99.90;;;;;;10384867;28;20699;-69
2021/12/12 20:56:42;;;;;;;12.30;9.43;;;6.30;99.90;;;;;;10411691;28;20243;-70
2021/12/12 21:01:50;;;;;;;14.07;9.83;;;6.30;99.90;;;;;;10398348;28;20695;-71
2021/12/12 21:07:05;;;;;;;15.23;9.77;;;6.20;99.90;;;;;;10396152;28;20304;-71
2021/12/12 21:12:33;;;;;;;16.17;10.63;;;6.30;99.90;;;;;;10408637;28;20217;-70
2021/12/12 21:17:38;;;;;;;14.57;10.80;;;6.30;99.90;;;;;;10388258;28;20244;-71
2021/12/12 21:22:45;;;;;;;12.57;10.37;;;6.30;99.90;;;;;;10395007;28;20239;-70
2021/12/12 21:27:46;;;;;;;16.47;10.23;;;6.30;99.90;;;;;;10402999;28;20754;-71
2021/12/12 21:32:50;;;;;;;15.17;11.03;;;6.30;99.90;;;;;;10388145;28;20414;-71
2021/12/12 21:38:05;;;;;;;17.40;11.60;;;6.40;99.90;;;;;;10394856;28;20252;-71
2021/12/12 21:43:10;;;;;;;16.10;11.53;;;6.40;99.90;;;;;;10383566;28;20567;-70
2021/12/12 21:48:11;;;;;;;16.03;10.40;;;6.40;99.90;;;;;;10390099;28;20224;-71
2021/12/12 21:53:14;;;;;;;16.03;10.87;;;6.40;99.90;;;;;;10403527;28;20236;-71
2021/12/12 21:58:32;;;;;;;13.93;10.53;;;6.40;99.90;;;;;;10394910;28;20575;-70
2021/12/12 22:03:56;;;;;;;15.30;10.43;;;6.40;99.90;;;;;;10399184;28;20224;-71
2021/12/12 22:09:05;;;;;;;15.30;9.97;;;6.40;99.90;;;;;;10411444;28;20303;-70
2021/12/12 22:14:13;;;;;;;15.50;10.03;;;6.50;99.90;;;;;;10400786;28;20311;-71
2021/12/12 22:19:27;;;;;;;14.87;9.53;;;6.50;99.90;;;;;;10405753;28;20239;-70
2021/12/12 22:24:59;;;;;;;12.20;9.70;;;6.50;99.90;;;;;;10393101;28;20221;-70
2021/12/12 22:30:03;;;;;;;13.73;9.53;;;6.50;99.90;;;;;;10386580;28;20262;-71
2021/12/12 22:35:09;;;;;;;13.53;9.93;;;6.50;99.90;;;;;;10385667;28;20238;-71
2021/12/12 22:40:15;;;;;;;12.90;8.43;;;6.50;99.90;;;;;;10406372;28;20232;-70
2021/12/12 22:45:22;;;;;;;11.70;8.60;;;6.60;99.90;;;;;;10406042;28;20699;-70
2021/12/12 22:50:31;;;;;;;11.57;8.83;;;6.60;99.90;;;;;;10392657;28;20200;-69
2021/12/12 22:55:40;;;;;;;15.70;8.77;;;6.60;99.90;;;;;;10412906;28;20232;-68
2021/12/12 23:00:41;;;;;;;11.97;8.37;;;6.60;99.90;;;;;;10394326;28;20279;-70
2021/12/12 23:05:52;;;;;;;14.00;8.53;;;6.60;99.90;;;;;;10401098;28;20263;-71
2021/12/12 23:11:06;;;;;;;11.37;7.53;;;6.70;99.90;;;;;;10410089;28;20232;-69
2021/12/12 23:16:15;;;;;;;14.90;7.57;;;6.70;99.90;;;;;;10392209;28;20303;-70
2021/12/12 23:21:27;;;;;;;11.73;7.80;;;6.70;99.90;;;;;;10404144;28;20236;-72
2021/12/12 23:26:37;;;;;;;13.10;8.43;;;6.70;99.90;;;;;;10411277;28;20574;-69
2021/12/12 23:31:59;;;;;;;12.40;7.70;;;6.80;99.90;;;;;;10402102;28;20283;-69
2021/12/12 23:37:24;;;;;;;12.10;7.67;;;6.80;99.90;;;;;;10396303;28;20229;-70
2021/12/12 23:42:45;;;;;;;11.20;7.57;;;6.80;99.90;;;;;;10395057;28;20228;-70
2021/12/12 23:47:53;;;;;;;11.63;6.37;;;6.70;99.90;;;;;;10399327;28;20689;-70
2021/12/12 23:52:58;;;;;;;9.70;7.10;;;6.80;99.90;;;;;;10401767;28;20808;-70
2021/12/12 23:58:09;;;;;;;12.97;8.10;;;6.80;99.90;;;;;;10394105;28;20233;-69
